sensor_id;sensor_type;location;lat;lon;timestamp;temperature;humidity
12907;DHT22;6521;50.498;8.474;2023-09-19T00:02:11;16.51;87.41
12907;DHT22;6521;50.498;8.474;2023-09-19T00:04:42;16.51;87.49
12907;DHT22;6521;50.498;8.474;2023-09-19T00:07:13;16.52;87.46
12907;DHT22;6521;50.498;8.474;2023-09-19T00:09:45;16.47;87.66
12907;DHT22;6521;50.498;8.474;2023-09-19T00:12:17;16.48;87.53
12907;DHT22;6521;50.498;8.474;2023-09-19T00:14:48;16.48;87.54
12907;DHT22;6521;50.498;8.474;2023-09-19T00:17:20;16.51;87.52
12907;DHT22;6521;50.498;8.474;2023-09-19T00:19:51;16.49;87.50
12907;DHT22;6521;50.498;8.474;2023-09-19T00:22:31;16.49;87.49
12907;DHT22;6521;50.498;8.474;2023-09-19T00:25:03;16.47;87.54
12907;DHT22;6521;50.498;8.474;2023-09-19T00:27:36;16.45;87.42
12907;DHT22;6521;50.498;8.474;2023-09-19T00:30:12;16.51;87.26
12907;DHT22;6521;50.498;8.474;2023-09-19T00:33:00;16.47;87.27
12907;DHT22;6521;50.498;8.474;2023-09-19T00:35:33;16.49;87.28
12907;DHT22;6521;50.498;8.474;2023-09-19T00:38:05;16.49;87.19
12907;DHT22;6521;50.498;8.474;2023-09-19T00:40:46;16.51;87.24
12907;DHT22;6521;50.498;8.474;2023-09-19T00:43:17;16.51;87.13
12907;DHT22;6521;50.498;8.474;2023-09-19T00:45:50;16.54;87.10
12907;DHT22;6521;50.498;8.474;2023-09-19T00:48:22;16.52;87.06
12907;DHT22;6521;50.498;8.474;2023-09-19T00:50:53;16.47;86.98
12907;DHT22;6521;50.498;8.474;2023-09-19T00:53:24;16.42;87.22
12907;DHT22;6521;50.498;8.474;2023-09-19T00:55:55;16.41;87.34
12907;DHT22;6521;50.498;8.474;2023-09-19T00:58:27;16.40;87.54
12907;DHT22;6521;50.498;8.474;2023-09-19T01:01:04;16.40;87.43
12907;DHT22;6521;50.498;8.474;2023-09-19T01:03:40;16.38;87.87
12907;DHT22;6521;50.498;8.474;2023-09-19T01:06:11;16.40;87.65
12907;DHT22;6521;50.498;8.474;2023-09-19T01:08:43;16.37;87.24
12907;DHT22;6521;50.498;8.474;2023-09-19T01:11:21;16.31;87.48
12907;DHT22;6521;50.498;8.474;2023-09-19T01:14:11;16.28;87.61
12907;DHT22;6521;50.498;8.474;2023-09-19T01:31:02;16.11;88.43
12907;DHT22;6521;50.498;8.474;2023-09-19T01:33:56;16.11;88.50
12907;DHT22;6521;50.498;8.474;2023-09-19T01:36:32;16.08;88.68
12907;DHT22;6521;50.498;8.474;2023-09-19T01:39:11;16.08;88.69
12907;DHT22;6521;50.498;8.474;2023-09-19T01:44:56;16.04;88.55
12907;DHT22;6521;50.498;8.474;2023-09-19T01:47:34;15.98;88.78
12907;DHT22;6521;50.498;8.474;2023-09-19T01:50:30;15.96;88.90
12907;DHT22;6521;50.498;8.474;2023-09-19T01:53:06;15.94;88.85
12907;DHT22;6521;50.498;8.474;2023-09-19T01:55:43;15.94;89.00
12907;DHT22;6521;50.498;8.474;2023-09-19T01:58:52;15.90;89.21
12907;DHT22;6521;50.498;8.474;2023-09-19T02:01:25;15.86;89.24
12907;DHT22;6521;50.498;8.474;2023-09-19T02:04:02;15.85;89.21
12907;DHT22;6521;50.498;8.474;2023-09-19T02:06:40;15.74;89.40
12907;DHT22;6521;50.498;8.474;2023-09-19T02:09:12;15.76;89.39
12907;DHT22;6521;50.498;8.474;2023-09-19T02:11:43;15.76;89.36
12907;DHT22;6521;50.498;8.474;2023-09-19T02:14:14;15.69;89.52
12907;DHT22;6521;50.498;8.474;2023-09-19T02:16:45;15.69;89.46
12907;DHT22;6521;50.498;8.474;2023-09-19T02:19:16;15.69;89.19
12907;DHT22;6521;50.498;8.474;2023-09-19T02:21:47;15.71;89.01
12907;DHT22;6521;50.498;8.474;2023-09-19T02:24:19;15.71;88.29
12907;DHT22;6521;50.498;8.474;2023-09-19T02:26:50;15.66;88.37
12907;DHT22;6521;50.498;8.474;2023-09-19T02:29:22;15.65;87.99
12907;DHT22;6521;50.498;8.474;2023-09-19T02:31:53;15.62;88.15
12907;DHT22;6521;50.498;8.474;2023-09-19T02:34:26;15.63;88.15
12907;DHT22;6521;50.498;8.474;2023-09-19T02:36:57;15.56;88.27
12907;DHT22;6521;50.498;8.474;2023-09-19T02:39:28;15.57;87.93
12907;DHT22;6521;50.498;8.474;2023-09-19T02:41:59;15.48;87.94
12907;DHT22;6521;50.498;8.474;2023-09-19T02:44:30;15.43;88.11
12907;DHT22;6521;50.498;8.474;2023-09-19T02:47:01;15.43;88.09
12907;DHT22;6521;50.498;8.474;2023-09-19T02:49:31;15.43;87.77
12907;DHT22;6521;50.498;8.474;2023-09-19T02:52:03;15.39;87.50
12907;DHT22;6521;50.498;8.474;2023-09-19T02:54:34;15.31;87.59
12907;DHT22;6521;50.498;8.474;2023-09-19T02:57:05;15.32;87.84
12907;DHT22;6521;50.498;8.474;2023-09-19T02:59:37;15.32;87.69
12907;DHT22;6521;50.498;8.474;2023-09-19T03:02:09;15.29;87.75
12907;DHT22;6521;50.498;8.474;2023-09-19T03:04:40;15.24;87.57
12907;DHT22;6521;50.498;8.474;2023-09-19T03:07:10;15.27;87.73
12907;DHT22;6521;50.498;8.474;2023-09-19T03:09:42;15.28;86.99
12907;DHT22;6521;50.498;8.474;2023-09-19T03:12:13;15.28;86.94
12907;DHT22;6521;50.498;8.474;2023-09-19T03:14:47;15.22;86.69
12907;DHT22;6521;50.498;8.474;2023-09-19T03:17:18;15.22;86.82
12907;DHT22;6521;50.498;8.474;2023-09-19T03:19:50;15.22;86.74
12907;DHT22;6521;50.498;8.474;2023-09-19T03:22:22;15.22;86.54
12907;DHT22;6521;50.498;8.474;2023-09-19T03:24:55;15.22;86.74
12907;DHT22;6521;50.498;8.474;2023-09-19T03:27:26;15.28;86.47
12907;DHT22;6521;50.498;8.474;2023-09-19T03:29:58;15.27;86.36
12907;DHT22;6521;50.498;8.474;2023-09-19T03:32:30;15.21;86.45
12907;DHT22;6521;50.498;8.474;2023-09-19T03:35:01;15.24;86.36
12907;DHT22;6521;50.498;8.474;2023-09-19T03:37:32;15.19;86.31
12907;DHT22;6521;50.498;8.474;2023-09-19T03:40:07;15.22;86.50
12907;DHT22;6521;50.498;8.474;2023-09-19T03:42:42;15.22;86.16
12907;DHT22;6521;50.498;8.474;2023-09-19T03:45:16;15.25;85.11
12907;DHT22;6521;50.498;8.474;2023-09-19T03:47:52;15.28;85.70
12907;DHT22;6521;50.498;8.474;2023-09-19T03:50:25;15.21;85.44
12907;DHT22;6521;50.498;8.474;2023-09-19T03:52:57;15.27;85.60
12907;DHT22;6521;50.498;8.474;2023-09-19T03:55:28;15.28;85.60
12907;DHT22;6521;50.498;8.474;2023-09-19T03:58:01;15.29;86.16
12907;DHT22;6521;50.498;8.474;2023-09-19T04:00:32;15.19;85.98
12907;DHT22;6521;50.498;8.474;2023-09-19T04:03:05;15.14;85.45
12907;DHT22;6521;50.498;8.474;2023-09-19T04:05:37;14.97;85.62
12907;DHT22;6521;50.498;8.474;2023-09-19T04:08:08;14.84;85.62
12907;DHT22;6521;50.498;8.474;2023-09-19T04:10:41;14.78;85.81
12907;DHT22;6521;50.498;8.474;2023-09-19T04:13:12;14.74;86.01
12907;DHT22;6521;50.498;8.474;2023-09-19T04:15:43;14.70;86.04
12907;DHT22;6521;50.498;8.474;2023-09-19T04:18:13;14.69;86.32
12907;DHT22;6521;50.498;8.474;2023-09-19T04:20:51;14.66;86.49
12907;DHT22;6521;50.498;8.474;2023-09-19T04:23:22;14.64;86.79
12907;DHT22;6521;50.498;8.474;2023-09-19T04:25:52;14.63;86.55
12907;DHT22;6521;50.498;8.474;2023-09-19T04:28:24;14.63;86.79
12907;DHT22;6521;50.498;8.474;2023-09-19T04:30:55;14.59;86.58
12907;DHT22;6521;50.498;8.474;2023-09-19T04:33:27;14.53;86.79
12907;DHT22;6521;50.498;8.474;2023-09-19T04:35:58;14.50;86.79
12907;DHT22;6521;50.498;8.474;2023-09-19T04:38:29;14.50;86.81
12907;DHT22;6521;50.498;8.474;2023-09-19T04:40:59;14.46;86.98
12907;DHT22;6521;50.498;8.474;2023-09-19T04:43:30;14.43;86.90
12907;DHT22;6521;50.498;8.474;2023-09-19T04:46:01;14.40;87.04
12907;DHT22;6521;50.498;8.474;2023-09-19T04:48:32;14.34;87.26
12907;DHT22;6521;50.498;8.474;2023-09-19T04:51:05;14.30;87.28
12907;DHT22;6521;50.498;8.474;2023-09-19T04:53:35;14.33;87.37
12907;DHT22;6521;50.498;8.474;2023-09-19T04:56:06;14.30;87.50
12907;DHT22;6521;50.498;8.474;2023-09-19T04:58:38;14.29;87.60
12907;DHT22;6521;50.498;8.474;2023-09-19T05:01:09;14.28;87.63
12907;DHT22;6521;50.498;8.474;2023-09-19T05:03:42;14.25;87.60
12907;DHT22;6521;50.498;8.474;2023-09-19T05:06:13;14.22;87.88
12907;DHT22;6521;50.498;8.474;2023-09-19T05:08:43;14.26;87.95
12907;DHT22;6521;50.498;8.474;2023-09-19T05:11:14;14.26;87.99
12907;DHT22;6521;50.498;8.474;2023-09-19T05:13:45;14.23;88.45
12907;DHT22;6521;50.498;8.474;2023-09-19T05:16:18;14.26;88.43
12907;DHT22;6521;50.498;8.474;2023-09-19T05:18:49;14.28;88.56
12907;DHT22;6521;50.498;8.474;2023-09-19T05:21:20;14.34;88.30
12907;DHT22;6521;50.498;8.474;2023-09-19T05:23:51;14.32;88.09
12907;DHT22;6521;50.498;8.474;2023-09-19T05:26:23;14.30;88.14
12907;DHT22;6521;50.498;8.474;2023-09-19T05:28:53;14.40;87.71
12907;DHT22;6521;50.498;8.474;2023-09-19T05:31:24;14.36;87.54
12907;DHT22;6521;50.498;8.474;2023-09-19T05:33:58;14.39;87.30
12907;DHT22;6521;50.498;8.474;2023-09-19T05:36:31;14.43;87.27
12907;DHT22;6521;50.498;8.474;2023-09-19T05:39:02;14.39;87.46
12907;DHT22;6521;50.498;8.474;2023-09-19T05:41:34;14.50;87.15
12907;DHT22;6521;50.498;8.474;2023-09-19T05:44:07;14.50;87.19
12907;DHT22;6521;50.498;8.474;2023-09-19T05:46:37;14.49;86.97
12907;DHT22;6521;50.498;8.474;2023-09-19T05:49:08;14.55;86.85
12907;DHT22;6521;50.498;8.474;2023-09-19T05:51:39;14.49;86.81
12907;DHT22;6521;50.498;8.474;2023-09-19T05:54:10;14.55;87.06
12907;DHT22;6521;50.498;8.474;2023-09-19T05:56:41;14.53;87.03
12907;DHT22;6521;50.498;8.474;2023-09-19T05:59:12;14.55;87.05
12907;DHT22;6521;50.498;8.474;2023-09-19T06:01:46;14.57;86.83
12907;DHT22;6521;50.498;8.474;2023-09-19T06:04:17;14.60;86.87
12907;DHT22;6521;50.498;8.474;2023-09-19T06:06:51;14.57;86.95
12907;DHT22;6521;50.498;8.474;2023-09-19T06:09:22;14.61;86.93
12907;DHT22;6521;50.498;8.474;2023-09-19T06:11:53;14.69;86.84
12907;DHT22;6521;50.498;8.474;2023-09-19T06:14:26;14.70;86.27
12907;DHT22;6521;50.498;8.474;2023-09-19T06:16:56;14.74;86.29
12907;DHT22;6521;50.498;8.474;2023-09-19T06:19:27;14.74;86.12
12907;DHT22;6521;50.498;8.474;2023-09-19T06:21:58;14.76;85.39
12907;DHT22;6521;50.498;8.474;2023-09-19T06:24:30;14.77;85.16
12907;DHT22;6521;50.498;8.474;2023-09-19T06:27:01;14.90;84.92
12907;DHT22;6521;50.498;8.474;2023-09-19T06:29:33;14.90;85.01
12907;DHT22;6521;50.498;8.474;2023-09-19T06:32:08;14.92;85.31
12907;DHT22;6521;50.498;8.474;2023-09-19T06:34:39;14.94;85.28
12907;DHT22;6521;50.498;8.474;2023-09-19T06:37:14;15.01;85.60
12907;DHT22;6521;50.498;8.474;2023-09-19T06:39:44;15.07;85.32
12907;DHT22;6521;50.498;8.474;2023-09-19T06:42:16;15.09;85.20
12907;DHT22;6521;50.498;8.474;2023-09-19T06:44:48;15.08;84.86
12907;DHT22;6521;50.498;8.474;2023-09-19T06:47:19;15.18;84.83
12907;DHT22;6521;50.498;8.474;2023-09-19T06:49:49;15.18;84.56
12907;DHT22;6521;50.498;8.474;2023-09-19T06:52:21;15.21;84.34
12907;DHT22;6521;50.498;8.474;2023-09-19T06:54:52;15.27;84.56
12907;DHT22;6521;50.498;8.474;2023-09-19T06:57:25;15.25;83.44
12907;DHT22;6521;50.498;8.474;2023-09-19T06:59:56;15.29;84.06
12907;DHT22;6521;50.498;8.474;2023-09-19T07:02:27;15.31;84.15
12907;DHT22;6521;50.498;8.474;2023-09-19T07:04:58;15.35;83.72
12907;DHT22;6521;50.498;8.474;2023-09-19T07:07:29;15.35;82.82
12907;DHT22;6521;50.498;8.474;2023-09-19T07:10:03;15.40;83.29
12907;DHT22;6521;50.498;8.474;2023-09-19T07:12:38;15.46;81.72
12907;DHT22;6521;50.498;8.474;2023-09-19T07:15:11;15.45;81.66
12907;DHT22;6521;50.498;8.474;2023-09-19T07:17:41;15.46;81.39
12907;DHT22;6521;50.498;8.474;2023-09-19T07:20:12;15.53;81.05
12907;DHT22;6521;50.498;8.474;2023-09-19T07:22:46;15.57;80.43
12907;DHT22;6521;50.498;8.474;2023-09-19T07:25:18;15.57;79.31
12907;DHT22;6521;50.498;8.474;2023-09-19T07:27:49;15.62;79.98
12907;DHT22;6521;50.498;8.474;2023-09-19T07:30:21;15.63;81.01
12907;DHT22;6521;50.498;8.474;2023-09-19T07:32:52;15.70;80.85
12907;DHT22;6521;50.498;8.474;2023-09-19T07:35:23;15.70;81.56
12907;DHT22;6521;50.498;8.474;2023-09-19T07:37:54;15.76;81.83
12907;DHT22;6521;50.498;8.474;2023-09-19T07:40:27;15.76;81.85
12907;DHT22;6521;50.498;8.474;2023-09-19T07:42:59;15.86;81.99
12907;DHT22;6521;50.498;8.474;2023-09-19T07:45:32;15.87;81.70
12907;DHT22;6521;50.498;8.474;2023-09-19T07:48:03;15.86;82.12
12907;DHT22;6521;50.498;8.474;2023-09-19T07:50:44;15.89;81.37
12907;DHT22;6521;50.498;8.474;2023-09-19T07:53:14;15.93;79.25
12907;DHT22;6521;50.498;8.474;2023-09-19T07:55:47;15.96;78.90
12907;DHT22;6521;50.498;8.474;2023-09-19T07:58:19;15.98;75.38
12907;DHT22;6521;50.498;8.474;2023-09-19T08:00:49;15.94;76.94
12907;DHT22;6521;50.498;8.474;2023-09-19T08:03:22;15.90;76.37
12907;DHT22;6521;50.498;8.474;2023-09-19T08:05:52;15.85;76.14
12907;DHT22;6521;50.498;8.474;2023-09-19T08:08:23;15.89;76.89
12907;DHT22;6521;50.498;8.474;2023-09-19T08:10:58;15.90;76.47
12907;DHT22;6521;50.498;8.474;2023-09-19T08:13:29;15.98;75.23
12907;DHT22;6521;50.498;8.474;2023-09-19T08:16:03;15.97;74.11
12907;DHT22;6521;50.498;8.474;2023-09-19T08:18:34;15.97;73.68
12907;DHT22;6521;50.498;8.474;2023-09-19T08:21:05;16.06;74.15
12907;DHT22;6521;50.498;8.474;2023-09-19T08:23:40;16.08;72.95
12907;DHT22;6521;50.498;8.474;2023-09-19T08:26:12;16.08;72.38
12907;DHT22;6521;50.498;8.474;2023-09-19T08:28:43;16.10;72.76
12907;DHT22;6521;50.498;8.474;2023-09-19T08:31:14;16.08;72.10
12907;DHT22;6521;50.498;8.474;2023-09-19T08:33:45;16.13;71.18
12907;DHT22;6521;50.498;8.474;2023-09-19T08:36:19;16.21;72.20
12907;DHT22;6521;50.498;8.474;2023-09-19T08:38:50;16.27;72.07
12907;DHT22;6521;50.498;8.474;2023-09-19T08:41:21;16.47;73.03
12907;DHT22;6521;50.498;8.474;2023-09-19T08:43:51;16.55;72.96
12907;DHT22;6521;50.498;8.474;2023-09-19T08:46:25;16.66;71.58
12907;DHT22;6521;50.498;8.474;2023-09-19T08:49:03;16.66;73.06
12907;DHT22;6521;50.498;8.474;2023-09-19T08:51:45;16.83;70.39
12907;DHT22;6521;50.498;8.474;2023-09-19T08:54:24;16.95;70.64
12907;DHT22;6521;50.498;8.474;2023-09-19T08:57:06;17.02;69.69
12907;DHT22;6521;50.498;8.474;2023-09-19T08:59:41;17.04;69.89
12907;DHT22;6521;50.498;8.474;2023-09-19T09:02:14;17.12;69.59
12907;DHT22;6521;50.498;8.474;2023-09-19T09:04:46;17.10;69.73
12907;DHT22;6521;50.498;8.474;2023-09-19T09:07:19;17.13;68.56
12907;DHT22;6521;50.498;8.474;2023-09-19T09:09:51;16.96;68.70
12907;DHT22;6521;50.498;8.474;2023-09-19T09:12:22;16.95;69.10
12907;DHT22;6521;50.498;8.474;2023-09-19T09:14:54;17.16;69.64
12907;DHT22;6521;50.498;8.474;2023-09-19T09:17:25;17.38;67.06
12907;DHT22;6521;50.498;8.474;2023-09-19T09:19:56;17.35;66.23
12907;DHT22;6521;50.498;8.474;2023-09-19T09:22:27;17.38;64.57
12907;DHT22;6521;50.498;8.474;2023-09-19T09:24:58;17.48;64.80
12907;DHT22;6521;50.498;8.474;2023-09-19T09:27:29;17.35;62.92
12907;DHT22;6521;50.498;8.474;2023-09-19T09:30:00;17.38;62.91
12907;DHT22;6521;50.498;8.474;2023-09-19T09:32:30;17.61;64.18
12907;DHT22;6521;50.498;8.474;2023-09-19T09:35:07;17.70;63.42
12907;DHT22;6521;50.498;8.474;2023-09-19T09:37:43;17.84;64.40
12907;DHT22;6521;50.498;8.474;2023-09-19T09:40:13;17.99;63.12
12907;DHT22;6521;50.498;8.474;2023-09-19T09:42:45;18.06;63.26
12907;DHT22;6521;50.498;8.474;2023-09-19T09:45:21;18.16;63.41
12907;DHT22;6521;50.498;8.474;2023-09-19T09:48:04;18.14;63.34
12907;DHT22;6521;50.498;8.474;2023-09-19T09:50:48;18.22;63.93
12907;DHT22;6521;50.498;8.474;2023-09-19T09:53:21;18.33;63.13
12907;DHT22;6521;50.498;8.474;2023-09-19T09:58:35;18.56;63.09
12907;DHT22;6521;50.498;8.474;2023-09-19T10:01:07;18.70;61.81
12907;DHT22;6521;50.498;8.474;2023-09-19T10:03:42;18.71;61.41
12907;DHT22;6521;50.498;8.474;2023-09-19T10:06:19;18.53;61.81
12907;DHT22;6521;50.498;8.474;2023-09-19T10:09:23;18.36;62.25
12907;DHT22;6521;50.498;8.474;2023-09-19T10:12:08;18.67;62.11
12907;DHT22;6521;50.498;8.474;2023-09-19T10:14:42;18.72;60.54
12907;DHT22;6521;50.498;8.474;2023-09-19T10:17:18;18.88;62.01
12907;DHT22;6521;50.498;8.474;2023-09-19T10:19:57;19.09;62.26
12907;DHT22;6521;50.498;8.474;2023-09-19T10:22:29;19.16;60.12
12907;DHT22;6521;50.498;8.474;2023-09-19T10:25:04;19.01;59.93
12907;DHT22;6521;50.498;8.474;2023-09-19T10:27:39;19.11;59.18
12907;DHT22;6521;50.498;8.474;2023-09-19T10:30:12;19.12;58.62
12907;DHT22;6521;50.498;8.474;2023-09-19T10:32:43;19.30;59.08
12907;DHT22;6521;50.498;8.474;2023-09-19T10:35:17;19.28;56.19
12907;DHT22;6521;50.498;8.474;2023-09-19T10:37:49;19.12;57.95
12907;DHT22;6521;50.498;8.474;2023-09-19T10:40:20;18.97;58.61
12907;DHT22;6521;50.498;8.474;2023-09-19T10:42:58;18.87;58.96
12907;DHT22;6521;50.498;8.474;2023-09-19T10:45:32;18.90;58.11
12907;DHT22;6521;50.498;8.474;2023-09-19T10:48:03;18.75;58.41
12907;DHT22;6521;50.498;8.474;2023-09-19T10:54:06;18.22;61.07
12907;DHT22;6521;50.498;8.474;2023-09-19T10:56:43;18.46;60.78
12907;DHT22;6521;50.498;8.474;2023-09-19T10:59:21;18.70;58.66
12907;DHT22;6521;50.498;8.474;2023-09-19T11:01:55;19.04;59.46
12907;DHT22;6521;50.498;8.474;2023-09-19T11:04:30;19.22;56.73
12907;DHT22;6521;50.498;8.474;2023-09-19T11:15:00;18.90;57.44
12907;DHT22;6521;50.498;8.474;2023-09-19T11:17:35;19.00;56.68
12907;DHT22;6521;50.498;8.474;2023-09-19T11:30:37;19.69;54.47
12907;DHT22;6521;50.498;8.474;2023-09-19T11:33:24;19.79;54.43
12907;DHT22;6521;50.498;8.474;2023-09-19T11:36:15;20.11;53.20
12907;DHT22;6521;50.498;8.474;2023-09-19T11:43:52;20.06;52.27
12907;DHT22;6521;50.498;8.474;2023-09-19T11:46:25;20.29;51.75
12907;DHT22;6521;50.498;8.474;2023-09-19T11:49:07;20.72;51.85
12907;DHT22;6521;50.498;8.474;2023-09-19T11:51:41;21.04;50.82
12907;DHT22;6521;50.498;8.474;2023-09-19T11:54:14;20.85;48.66
12907;DHT22;6521;50.498;8.474;2023-09-19T11:57:02;21.11;49.36
12907;DHT22;6521;50.498;8.474;2023-09-19T11:59:38;21.40;48.36
12907;DHT22;6521;50.498;8.474;2023-09-19T12:02:12;21.79;47.75
12907;DHT22;6521;50.498;8.474;2023-09-19T12:04:45;22.05;47.78
12907;DHT22;6521;50.498;8.474;2023-09-19T12:07:19;21.69;47.89
12907;DHT22;6521;50.498;8.474;2023-09-19T12:10:03;21.74;48.90
12907;DHT22;6521;50.498;8.474;2023-09-19T12:12:34;21.78;46.76
12907;DHT22;6521;50.498;8.474;2023-09-19T12:15:06;21.62;46.70
12907;DHT22;6521;50.498;8.474;2023-09-19T12:17:41;21.20;47.85
12907;DHT22;6521;50.498;8.474;2023-09-19T12:20:15;21.17;49.24
12907;DHT22;6521;50.498;8.474;2023-09-19T12:22:47;21.43;49.29
12907;DHT22;6521;50.498;8.474;2023-09-19T12:25:19;21.71;48.66
12907;DHT22;6521;50.498;8.474;2023-09-19T12:27:51;21.64;47.05
12907;DHT22;6521;50.498;8.474;2023-09-19T12:30:29;21.74;46.23
12907;DHT22;6521;50.498;8.474;2023-09-19T12:33:04;21.81;46.79
12907;DHT22;6521;50.498;8.474;2023-09-19T12:35:34;21.99;44.22
12907;DHT22;6521;50.498;8.474;2023-09-19T12:38:05;21.75;45.87
12907;DHT22;6521;50.498;8.474;2023-09-19T12:40:39;21.53;44.81
12907;DHT22;6521;50.498;8.474;2023-09-19T12:43:13;21.50;45.22
12907;DHT22;6521;50.498;8.474;2023-09-19T12:45:46;21.37;44.78
12907;DHT22;6521;50.498;8.474;2023-09-19T12:48:22;21.33;45.11
12907;DHT22;6521;50.498;8.474;2023-09-19T12:53:42;21.24;46.76
12907;DHT22;6521;50.498;8.474;2023-09-19T12:56:17;21.10;45.91
12907;DHT22;6521;50.498;8.474;2023-09-19T12:58:58;20.93;45.88
12907;DHT22;6521;50.498;8.474;2023-09-19T13:01:33;20.85;47.21
12907;DHT22;6521;50.498;8.474;2023-09-19T13:06:52;20.73;45.93
12907;DHT22;6521;50.498;8.474;2023-09-19T13:09:23;20.59;47.54
12907;DHT22;6521;50.498;8.474;2023-09-19T13:12:05;20.69;48.80
12907;DHT22;6521;50.498;8.474;2023-09-19T13:15:12;20.55;46.04
12907;DHT22;6521;50.498;8.474;2023-09-19T13:17:54;20.72;46.48
12907;DHT22;6521;50.498;8.474;2023-09-19T13:20:26;20.65;47.70
12907;DHT22;6521;50.498;8.474;2023-09-19T13:23:02;20.85;46.70
12907;DHT22;6521;50.498;8.474;2023-09-19T13:25:40;20.86;47.07
12907;DHT22;6521;50.498;8.474;2023-09-19T13:28:11;21.19;46.45
12907;DHT22;6521;50.498;8.474;2023-09-19T13:30:42;21.31;45.19
12907;DHT22;6521;50.498;8.474;2023-09-19T13:33:15;21.51;45.35
12907;DHT22;6521;50.498;8.474;2023-09-19T13:35:51;21.45;46.40
12907;DHT22;6521;50.498;8.474;2023-09-19T13:38:23;21.34;45.98
12907;DHT22;6521;50.498;8.474;2023-09-19T13:40:54;21.17;45.97
12907;DHT22;6521;50.498;8.474;2023-09-19T13:43:24;21.19;46.55
12907;DHT22;6521;50.498;8.474;2023-09-19T13:45:55;21.31;48.41
12907;DHT22;6521;50.498;8.474;2023-09-19T13:48:28;21.41;46.50
12907;DHT22;6521;50.498;8.474;2023-09-19T13:51:02;21.19;46.17
12907;DHT22;6521;50.498;8.474;2023-09-19T13:53:32;21.13;48.34
12907;DHT22;6521;50.498;8.474;2023-09-19T13:56:03;21.40;47.79
12907;DHT22;6521;50.498;8.474;2023-09-19T13:58:34;21.45;46.23
12907;DHT22;6521;50.498;8.474;2023-09-19T14:01:05;21.55;46.23
12907;DHT22;6521;50.498;8.474;2023-09-19T14:03:36;21.61;46.20
12907;DHT22;6521;50.498;8.474;2023-09-19T14:06:07;21.58;46.37
12907;DHT22;6521;50.498;8.474;2023-09-19T14:08:38;21.62;47.09
12907;DHT22;6521;50.498;8.474;2023-09-19T14:11:09;21.45;45.34
12907;DHT22;6521;50.498;8.474;2023-09-19T14:13:39;21.33;46.57
12907;DHT22;6521;50.498;8.474;2023-09-19T14:16:10;21.19;46.38
12907;DHT22;6521;50.498;8.474;2023-09-19T14:18:41;21.31;47.42
12907;DHT22;6521;50.498;8.474;2023-09-19T14:21:12;21.26;47.05
12907;DHT22;6521;50.498;8.474;2023-09-19T14:23:44;21.34;46.79
12907;DHT22;6521;50.498;8.474;2023-09-19T14:26:16;21.33;47.17
12907;DHT22;6521;50.498;8.474;2023-09-19T14:28:47;21.33;47.49
12907;DHT22;6521;50.498;8.474;2023-09-19T14:31:18;21.27;46.62
12907;DHT22;6521;50.498;8.474;2023-09-19T14:33:54;21.22;47.01
12907;DHT22;6521;50.498;8.474;2023-09-19T14:36:25;21.14;46.14
12907;DHT22;6521;50.498;8.474;2023-09-19T14:38:56;21.20;47.19
12907;DHT22;6521;50.498;8.474;2023-09-19T14:41:30;21.27;46.80
12907;DHT22;6521;50.498;8.474;2023-09-19T14:44:04;21.06;46.80
12907;DHT22;6521;50.498;8.474;2023-09-19T14:46:36;21.00;46.44
12907;DHT22;6521;50.498;8.474;2023-09-19T14:49:07;20.77;47.70
12907;DHT22;6521;50.498;8.474;2023-09-19T14:51:41;20.87;47.44
12907;DHT22;6521;50.498;8.474;2023-09-19T14:54:11;20.92;47.21
12907;DHT22;6521;50.498;8.474;2023-09-19T14:56:42;21.00;47.66
12907;DHT22;6521;50.498;8.474;2023-09-19T14:59:13;20.87;47.33
12907;DHT22;6521;50.498;8.474;2023-09-19T15:01:46;20.79;47.22
12907;DHT22;6521;50.498;8.474;2023-09-19T15:04:17;20.73;47.23
12907;DHT22;6521;50.498;8.474;2023-09-19T15:06:48;20.76;48.30
12907;DHT22;6521;50.498;8.474;2023-09-19T15:09:19;20.77;47.02
12907;DHT22;6521;50.498;8.474;2023-09-19T15:11:50;20.58;47.53
12907;DHT22;6521;50.498;8.474;2023-09-19T15:14:21;20.46;47.67
12907;DHT22;6521;50.498;8.474;2023-09-19T15:16:52;20.46;48.96
12907;DHT22;6521;50.498;8.474;2023-09-19T15:19:23;20.45;49.27
12907;DHT22;6521;50.498;8.474;2023-09-19T15:21:54;20.61;49.51
12907;DHT22;6521;50.498;8.474;2023-09-19T15:24:24;20.53;47.75
12907;DHT22;6521;50.498;8.474;2023-09-19T15:26:57;20.49;46.69
12907;DHT22;6521;50.498;8.474;2023-09-19T15:29:28;20.34;47.17
12907;DHT22;6521;50.498;8.474;2023-09-19T15:31:59;20.27;47.47
12907;DHT22;6521;50.498;8.474;2023-09-19T15:34:32;20.16;47.77
12907;DHT22;6521;50.498;8.474;2023-09-19T15:37:03;20.10;48.01
12907;DHT22;6521;50.498;8.474;2023-09-19T15:39:34;20.04;48.13
12907;DHT22;6521;50.498;8.474;2023-09-19T15:42:07;19.93;48.97
12907;DHT22;6521;50.498;8.474;2023-09-19T15:44:38;20.03;49.21
12907;DHT22;6521;50.498;8.474;2023-09-19T15:47:09;19.97;48.79
12907;DHT22;6521;50.498;8.474;2023-09-19T15:49:40;19.94;48.30
12907;DHT22;6521;50.498;8.474;2023-09-19T15:52:11;19.87;49.22
12907;DHT22;6521;50.498;8.474;2023-09-19T15:54:43;19.83;49.98
12907;DHT22;6521;50.498;8.474;2023-09-19T15:57:16;19.83;51.19
12907;DHT22;6521;50.498;8.474;2023-09-19T15:59:46;19.81;50.65
12907;DHT22;6521;50.498;8.474;2023-09-19T16:02:17;19.80;50.72
12907;DHT22;6521;50.498;8.474;2023-09-19T16:04:48;19.76;49.91
12907;DHT22;6521;50.498;8.474;2023-09-19T16:07:19;19.67;50.18
12907;DHT22;6521;50.498;8.474;2023-09-19T16:09:50;19.63;50.37
12907;DHT22;6521;50.498;8.474;2023-09-19T16:12:21;19.60;50.18
12907;DHT22;6521;50.498;8.474;2023-09-19T16:14:52;19.55;50.36
12907;DHT22;6521;50.498;8.474;2023-09-19T16:17:22;19.46;50.94
12907;DHT22;6521;50.498;8.474;2023-09-19T16:19:53;19.43;51.79
12907;DHT22;6521;50.498;8.474;2023-09-19T16:22:25;19.46;51.97
12907;DHT22;6521;50.498;8.474;2023-09-19T16:24:56;19.42;51.40
12907;DHT22;6521;50.498;8.474;2023-09-19T16:27:27;19.48;51.93
12907;DHT22;6521;50.498;8.474;2023-09-19T16:29:58;19.40;52.23
12907;DHT22;6521;50.498;8.474;2023-09-19T16:32:31;19.43;52.19
12907;DHT22;6521;50.498;8.474;2023-09-19T16:35:05;19.35;51.93
12907;DHT22;6521;50.498;8.474;2023-09-19T16:37:39;19.35;51.96
12907;DHT22;6521;50.498;8.474;2023-09-19T16:40:10;19.30;52.93
12907;DHT22;6521;50.498;8.474;2023-09-19T16:42:42;19.16;53.35
12907;DHT22;6521;50.498;8.474;2023-09-19T16:45:13;19.16;53.40
12907;DHT22;6521;50.498;8.474;2023-09-19T16:47:44;19.07;54.28
12907;DHT22;6521;50.498;8.474;2023-09-19T16:50:15;19.00;53.44
12907;DHT22;6521;50.498;8.474;2023-09-19T16:52:46;18.94;53.59
12907;DHT22;6521;50.498;8.474;2023-09-19T16:55:17;18.87;54.38
12907;DHT22;6521;50.498;8.474;2023-09-19T16:57:53;18.80;54.50
12907;DHT22;6521;50.498;8.474;2023-09-19T17:00:25;18.72;55.15
12907;DHT22;6521;50.498;8.474;2023-09-19T17:03:00;18.67;55.10
12907;DHT22;6521;50.498;8.474;2023-09-19T17:05:31;18.61;55.64
12907;DHT22;6521;50.498;8.474;2023-09-19T17:08:08;18.54;56.02
12907;DHT22;6521;50.498;8.474;2023-09-19T17:10:39;18.50;56.28
12907;DHT22;6521;50.498;8.474;2023-09-19T17:13:15;18.50;55.95
12907;DHT22;6521;50.498;8.474;2023-09-19T17:16:06;18.43;57.36